Louisiana, Missouri
Current Conditions -  °F | °C
As of 8:55 PM on Sunday 21 Dec 2014 (Local Time) from KPPQ Reporting Station
Overcast Overcast  
Wind Chill: 34°   Ceiling: 5000
Heat Index: 40°   Visibility: 10mi
Dew Point: 34°   Wind: 10mph
Humidity: 79%   Direction: 140°SE
Pressure: 29.95"   Gusts: NA
Location:  39.45°N, 91.05°W
Report Text: KPPQ 220255Z AUTO 14009KT 10SM SCT037 OVC050 05/01 A2995 RMK AO2 T00450011
Loading
Personal Weather Stations






























Interactive Weather Map New forecast layout! Learn more

10-Day Weather Forecast

Advertisements
Track Severe Weather on mobile